Destinations Frankfurt-Hahn Airport

Frankfurt-Hahn Airport (EDFH / HHN)

Flights to Frankfurt-Hahn Airport

Flight number From ETE Dispatch
SPY-2246 EGFF Cardiff International Airport 01:25

Flights from Frankfurt-Hahn Airport

Flight number To ETE Dispatch
SPY-2247 EGFF Cardiff International Airport 01:45
About

Frankfurt-Hahn Airport facts

Frankfurt-Hahn Airport is located in Hahn at an elevation of 502.6 meters or 1649 feet.

Currently, Speedy Airlines serves 2 flights to and from Frankfurt-Hahn Airport.

Detailed airport info

Route map

Weather

Current weather

METAR

METAR

Metar data retrieved Sunday, 21 July 2024 at 18:55 UTC

EDFH 211820Z 26006KT 240V300 9999 FEW032 23/16 Q1012
Wind Temperature
6 kt 23c